Time;durP1;ratioP1;P1;durP2;ratioP2;P2;SDS_P1;SDS_P2;PMS_P1;PMS_P2;Temp;Humidity;BMP_temperature;BMP_pressure;BME280_temperature;BME280_humidity;BME280_pressure;Samples;Min_cycle;Max_cycle;Signal;HPM_P1;HPM_P2
2021/03/16 00:01:34;;;;;;;6.57;3.10;;;4.20;98.30;;;;;;4126623;28;20225;-82
2021/03/16 00:03:36;;;;;;;4.93;3.17;;;4.10;98.30;;;;;;4126394;28;20232;-82
2021/03/16 00:05:39;;;;;;;7.90;3.03;;;4.20;98.30;;;;;;4123338;28;20229;-81
2021/03/16 00:07:42;;;;;;;6.72;3.70;;;4.10;98.30;;;;;;4123835;28;20232;-82
2021/03/16 00:09:44;;;;;;;9.50;3.22;;;4.10;98.30;;;;;;4128863;28;20232;-81
2021/03/16 00:11:46;;;;;;;11.68;3.72;;;4.10;98.30;;;;;;4122363;28;20290;-81
2021/03/16 00:13:49;;;;;;;6.57;3.40;;;4.10;98.30;;;;;;4116672;28;20232;-82
2021/03/16 00:15:51;;;;;;;4.82;3.42;;;4.10;98.30;;;;;;4120985;28;20236;-82
2021/03/16 00:17:53;;;;;;;6.88;3.40;;;4.10;98.30;;;;;;4124761;28;20254;-82
2021/03/16 00:19:55;;;;;;;5.68;3.60;;;4.10;98.30;;;;;;4119150;28;20716;-82
2021/03/16 00:21:57;;;;;;;8.55;3.47;;;4.10;98.30;;;;;;4116325;28;20247;-82
2021/03/16 00:23:59;;;;;;;7.38;3.05;;;4.00;98.30;;;;;;4126388;28;20228;-81
2021/03/16 00:26:01;;;;;;;3.75;3.40;;;4.00;98.30;;;;;;4116843;28;20905;-82
2021/03/16 00:28:03;;;;;;;11.70;3.78;;;4.00;98.30;;;;;;4125878;28;20252;-82
2021/03/16 00:30:08;;;;;;;4.60;3.22;;;4.00;98.30;;;;;;4122350;28;20323;-82
2021/03/16 00:32:10;;;;;;;12.90;7.28;;;3.90;98.30;;;;;;4127585;28;20232;-82
2021/03/16 00:34:12;;;;;;;39.15;21.45;;;3.90;98.30;;;;;;4120721;28;20241;-83
2021/03/16 00:36:14;;;;;;;39.20;22.08;;;3.90;98.30;;;;;;4129868;28;20236;-82
2021/03/16 00:38:16;;;;;;;10.32;5.57;;;3.90;98.30;;;;;;4124394;28;20653;-82
2021/03/16 00:40:19;;;;;;;5.60;3.65;;;3.90;98.30;;;;;;4122810;28;20240;-82
2021/03/16 00:42:21;;;;;;;7.07;3.55;;;3.90;98.30;;;;;;4118813;28;20671;-82
2021/03/16 00:44:24;;;;;;;3.97;3.15;;;3.90;98.30;;;;;;4125628;28;20700;-82
2021/03/16 00:46:26;;;;;;;4.95;2.90;;;3.80;98.30;;;;;;4124281;28;20241;-81
2021/03/16 00:48:29;;;;;;;4.85;3.20;;;3.80;98.30;;;;;;4125665;28;20315;-82
2021/03/16 00:50:31;;;;;;;5.88;3.30;;;3.80;98.30;;;;;;4121257;28;20284;-82
2021/03/16 00:52:33;;;;;;;4.90;3.45;;;3.70;98.30;;;;;;4112372;28;20221;-82
2021/03/16 00:54:35;;;;;;;3.65;3.05;;;3.70;98.30;;;;;;4118553;28;20273;-82
2021/03/16 00:56:38;;;;;;;5.68;3.17;;;3.70;98.30;;;;;;4115625;28;20236;-82
2021/03/16 00:58:40;;;;;;;6.10;3.70;;;3.60;98.30;;;;;;4125269;28;20242;-82
2021/03/16 01:00:42;;;;;;;4.05;2.90;;;3.60;98.30;;;;;;4121689;28;20237;-82
2021/03/16 01:02:45;;;;;;;7.65;3.60;;;3.60;98.30;;;;;;4113892;28;20619;-82
2021/03/16 01:04:48;;;;;;;4.30;3.13;;;3.50;98.30;;;;;;4120048;28;20761;-82
2021/03/16 01:06:50;;;;;;;6.07;3.67;;;3.50;98.30;;;;;;4120567;28;20260;-81
2021/03/16 01:08:52;;;;;;;4.80;3.20;;;3.50;98.30;;;;;;4135338;28;20320;-81
2021/03/16 01:10:54;;;;;;;4.50;3.15;;;3.50;98.30;;;;;;4129842;28;20248;-81
2021/03/16 01:12:57;;;;;;;3.75;2.90;;;3.40;98.30;;;;;;4121983;28;20255;-82
2021/03/16 01:14:59;;;;;;;4.30;3.22;;;3.40;98.30;;;;;;4117292;28;20315;-82
2021/03/16 01:17:01;;;;;;;5.07;3.03;;;3.40;98.30;;;;;;4125765;28;20231;-81
2021/03/16 01:19:04;;;;;;;3.20;2.78;;;3.40;98.30;;;;;;4123010;28;20243;-81
2021/03/16 01:21:07;;;;;;;4.70;3.20;;;3.30;98.30;;;;;;4125169;28;20233;-81
2021/03/16 01:23:10;;;;;;;3.70;3.20;;;3.30;98.30;;;;;;4120304;28;20238;-81
2021/03/16 01:25:16;;;;;;;8.18;3.35;;;3.40;98.30;;;;;;4123927;28;20275;-82
2021/03/16 01:27:18;;;;;;;6.25;3.20;;;3.40;98.30;;;;;;4125948;28;20310;-82
2021/03/16 01:29:20;;;;;;;3.40;2.90;;;3.40;98.30;;;;;;4122573;28;20254;-82
2021/03/16 01:31:22;;;;;;;4.65;3.10;;;3.30;98.30;;;;;;4117968;28;20243;-82
2021/03/16 01:33:24;;;;;;;5.63;2.90;;;3.30;98.30;;;;;;4116895;28;20232;-82
2021/03/16 01:35:27;;;;;;;3.35;2.78;;;3.30;98.30;;;;;;4123346;28;20299;-82
2021/03/16 01:37:29;;;;;;;6.05;3.30;;;3.30;98.30;;;;;;4123589;28;20573;-81
2021/03/16 01:39:31;;;;;;;3.60;3.30;;;3.20;98.30;;;;;;4123808;28;20236;-83
2021/03/16 01:41:33;;;;;;;27.05;14.48;;;3.20;98.30;;;;;;4123786;28;20692;-82
2021/03/16 01:43:35;;;;;;;84.50;47.33;;;3.20;98.30;;;;;;4122274;28;20375;-83
2021/03/16 01:45:37;;;;;;;72.47;42.28;;;3.10;98.30;;;;;;4122444;28;20224;-83
2021/03/16 01:47:40;;;;;;;14.77;8.70;;;3.10;98.30;;;;;;4123089;28;20591;-82
2021/03/16 01:49:43;;;;;;;5.15;4.05;;;3.10;98.30;;;;;;4121677;28;20228;-83
2021/03/16 01:51:46;;;;;;;7.35;3.28;;;3.10;98.30;;;;;;4119197;28;20586;-82
2021/03/16 01:53:48;;;;;;;4.90;3.63;;;3.10;98.30;;;;;;4121264;28;20224;-82
2021/03/16 01:56:00;;;;;;;6.53;3.50;;;3.10;98.30;;;;;;4120752;28;20253;-82
2021/03/16 01:58:02;;;;;;;3.72;3.33;;;3.00;98.30;;;;;;4125524;28;20232;-82
2021/03/16 02:00:06;;;;;;;6.72;3.50;;;3.00;98.30;;;;;;4121283;28;20279;-82
2021/03/16 02:02:08;;;;;;;3.70;2.97;;;3.00;98.30;;;;;;4123479;28;20220;-82
2021/03/16 02:07:01;;;;;;;6.65;3.50;;;3.00;98.30;;;;;;4116379;28;20232;-82
2021/03/16 02:09:09;;;;;;;6.25;3.30;;;3.00;98.30;;;;;;4122435;28;20231;-82
2021/03/16 02:11:17;;;;;;;3.35;2.90;;;3.00;98.30;;;;;;4120709;28;20232;-82
2021/03/16 02:13:24;;;;;;;4.25;3.65;;;2.90;98.30;;;;;;4114859;28;20295;-82
2021/03/16 02:15:31;;;;;;;3.78;3.33;;;3.00;98.30;;;;;;4121056;28;20238;-82
2021/03/16 02:17:36;;;;;;;6.25;3.40;;;3.00;98.30;;;;;;4125365;28;20323;-82
2021/03/16 02:20:07;;;;;;;6.43;4.07;;;3.00;98.30;;;;;;4123810;28;20936;-82
2021/03/16 02:22:10;;;;;;;4.43;3.22;;;2.90;98.30;;;;;;4121165;28;20238;-82
2021/03/16 02:24:42;;;;;;;5.28;3.60;;;2.90;98.30;;;;;;4124418;28;20275;-82
2021/03/16 02:27:02;;;;;;;7.18;4.10;;;2.90;98.30;;;;;;4104929;28;20260;-82
2021/03/16 02:29:11;;;;;;;5.88;3.28;;;3.00;98.30;;;;;;4118450;28;20239;-82
2021/03/16 02:31:16;;;;;;;5.75;3.70;;;2.90;98.30;;;;;;4121577;28;20231;-82
2021/03/16 02:33:22;;;;;;;6.35;3.50;;;2.90;98.30;;;;;;4117130;28;20248;-82
2021/03/16 02:35:25;;;;;;;5.15;3.30;;;3.00;98.30;;;;;;4117423;28;20310;-82
2021/03/16 02:37:30;;;;;;;5.25;3.70;;;2.90;98.30;;;;;;4118995;28;20224;-82
2021/03/16 02:39:34;;;;;;;7.68;3.63;;;2.90;98.30;;;;;;4115748;28;20258;-82
2021/03/16 02:41:37;;;;;;;5.88;3.40;;;2.80;98.30;;;;;;4120317;28;20236;-82
2021/03/16 02:43:39;;;;;;;5.65;3.30;;;2.80;98.30;;;;;;4115237;28;20271;-82
2021/03/16 02:45:43;;;;;;;8.48;3.75;;;2.70;98.30;;;;;;4118554;28;20244;-82
2021/03/16 02:47:46;;;;;;;5.18;3.80;;;2.70;98.30;;;;;;4124839;28;20247;-82
2021/03/16 02:49:49;;;;;;;7.43;3.78;;;2.70;98.30;;;;;;4117964;28;20606;-82
2021/03/16 02:51:52;;;;;;;7.03;4.00;;;2.70;98.30;;;;;;4120955;28;20379;-82
2021/03/16 02:53:55;;;;;;;7.63;3.60;;;2.70;98.30;;;;;;4115520;28;20651;-82
2021/03/16 02:55:57;;;;;;;6.00;3.55;;;2.70;98.30;;;;;;4121485;28;20256;-82
2021/03/16 02:58:03;;;;;;;5.30;3.40;;;2.70;98.30;;;;;;4121359;28;20307;-82
2021/03/16 03:00:06;;;;;;;7.38;3.17;;;2.70;98.30;;;;;;4116959;28;20630;-82
2021/03/16 03:02:11;;;;;;;5.95;3.30;;;2.70;98.30;;;;;;4116581;28;20220;-82
2021/03/16 03:04:15;;;;;;;8.98;3.58;;;2.70;98.30;;;;;;4112735;28;20232;-82
2021/03/16 03:06:17;;;;;;;6.53;3.40;;;2.70;98.30;;;;;;4118448;28;20314;-82
2021/03/16 03:08:22;;;;;;;5.63;3.40;;;2.70;98.30;;;;;;4120254;28;20320;-82
2021/03/16 03:10:25;;;;;;;6.90;3.70;;;2.60;98.30;;;;;;4122159;28;20758;-82
2021/03/16 03:12:26;;;;;;;5.70;3.13;;;2.60;98.30;;;;;;4121820;28;20266;-82
2021/03/16 03:14:28;;;;;;;8.07;4.00;;;2.60;98.30;;;;;;4123871;28;20296;-82
2021/03/16 03:16:30;;;;;;;8.55;3.65;;;2.50;98.30;;;;;;4119395;28;20414;-82
2021/03/16 03:18:34;;;;;;;6.35;3.90;;;2.50;98.30;;;;;;4120820;28;20229;-82
2021/03/16 03:20:37;;;;;;;8.07;3.85;;;2.60;98.30;;;;;;4121268;28;20240;-82
2021/03/16 03:22:43;;;;;;;7.65;4.20;;;2.60;98.30;;;;;;4122338;28;20633;-82
2021/03/16 03:24:49;;;;;;;8.52;3.80;;;2.50;98.30;;;;;;4124483;28;20240;-82
2021/03/16 03:27:08;;;;;;;9.02;4.57;;;2.60;98.30;;;;;;4120556;28;20225;-82
2021/03/16 03:29:11;;;;;;;7.63;4.25;;;2.70;98.30;;;;;;4117822;28;20307;-81
2021/03/16 03:31:14;;;;;;;7.88;4.00;;;2.70;98.30;;;;;;4121134;28;20236;-81
2021/03/16 03:33:18;;;;;;;8.18;4.03;;;2.60;98.30;;;;;;4123822;28;20240;-81
2021/03/16 03:35:22;;;;;;;7.43;3.70;;;2.60;98.30;;;;;;4114951;28;20328;-81
2021/03/16 03:37:25;;;;;;;9.88;4.43;;;2.60;98.30;;;;;;4123154;28;20258;-81
2021/03/16 03:39:29;;;;;;;8.25;5.18;;;2.60;98.30;;;;;;4125132;28;20247;-80
2021/03/16 03:41:32;;;;;;;18.10;6.10;;;2.60;98.30;;;;;;4124954;28;20284;-80
2021/03/16 03:43:36;;;;;;;8.25;4.78;;;2.60;98.30;;;;;;4123378;28;21038;-81
2021/03/16 03:45:39;;;;;;;6.50;4.25;;;2.60;98.30;;;;;;4122642;28;20260;-82
2021/03/16 03:47:43;;;;;;;10.05;4.95;;;2.60;98.30;;;;;;4119350;28;20225;-80
2021/03/16 03:49:46;;;;;;;12.63;6.80;;;2.60;98.30;;;;;;4125137;28;20227;-81
2021/03/16 03:51:50;;;;;;;12.55;5.00;;;2.60;98.30;;;;;;4122919;28;20233;-80
2021/03/16 03:53:53;;;;;;;11.93;5.72;;;2.50;98.30;;;;;;4112629;28;20228;-80
2021/03/16 03:55:56;;;;;;;8.60;5.30;;;2.50;98.30;;;;;;4123033;28;20318;-81
2021/03/16 03:57:59;;;;;;;9.95;5.15;;;2.50;98.30;;;;;;4122052;28;20232;-81
2021/03/16 04:00:02;;;;;;;12.77;5.30;;;2.50;98.30;;;;;;4117106;28;20239;-81
2021/03/16 04:02:04;;;;;;;37.33;23.83;;;2.50;98.30;;;;;;4123371;28;20716;-80
2021/03/16 04:04:06;;;;;;;53.30;30.30;;;2.50;98.30;;;;;;4120016;28;20228;-82
2021/03/16 04:06:09;;;;;;;38.90;19.60;;;2.50;98.30;;;;;;4121259;28;20611;-80
2021/03/16 04:08:12;;;;;;;14.02;7.35;;;2.60;98.30;;;;;;4122899;28;20246;-80
2021/03/16 04:10:16;;;;;;;14.00;6.40;;;2.60;98.30;;;;;;4120907;28;20254;-80
2021/03/16 04:12:18;;;;;;;16.33;7.40;;;2.50;98.30;;;;;;4125985;28;20236;-81
2021/03/16 04:14:21;;;;;;;16.70;6.07;;;2.50;98.30;;;;;;4131920;28;20283;-81
2021/03/16 04:16:24;;;;;;;18.00;6.25;;;2.50;98.30;;;;;;4127463;28;20249;-81
2021/03/16 04:18:27;;;;;;;12.50;5.93;;;2.50;98.30;;;;;;4123842;28;20232;-80
2021/03/16 04:20:29;;;;;;;10.55;5.60;;;2.60;98.30;;;;;;4122278;28;20255;-80
2021/03/16 04:22:31;;;;;;;13.43;6.63;;;2.60;98.30;;;;;;4122932;28;20244;-80
2021/03/16 04:24:34;;;;;;;15.43;6.57;;;2.60;98.30;;;;;;4122885;28;20229;-81
2021/03/16 04:26:37;;;;;;;24.10;7.85;;;2.50;98.30;;;;;;4118652;28;20260;-80
2021/03/16 04:28:39;;;;;;;14.57;6.43;;;2.50;98.30;;;;;;4123880;28;20602;-80
2021/03/16 04:30:40;;;;;;;12.32;6.30;;;2.50;98.30;;;;;;4121267;28;20238;-79
2021/03/16 04:32:42;;;;;;;15.02;6.53;;;2.50;98.30;;;;;;4127905;28;20665;-80
2021/03/16 04:34:45;;;;;;;17.50;5.50;;;2.60;98.30;;;;;;4119331;28;20232;-81
2021/03/16 04:36:46;;;;;;;22.88;7.20;;;2.70;98.30;;;;;;4121019;28;20244;-82
2021/03/16 04:38:48;;;;;;;15.20;6.60;;;2.80;98.30;;;;;;4125094;28;20268;-82
2021/03/16 04:40:51;;;;;;;22.30;7.22;;;2.80;98.30;;;;;;4126269;28;20250;-82
2021/03/16 04:42:53;;;;;;;19.20;7.70;;;2.90;98.30;;;;;;4125631;28;20232;-82
2021/03/16 04:44:55;;;;;;;20.00;9.43;;;3.00;98.30;;;;;;4123865;28;20239;-82
2021/03/16 04:46:57;;;;;;;24.85;10.25;;;3.00;98.30;;;;;;4129798;28;20239;-83
2021/03/16 04:48:59;;;;;;;34.60;11.80;;;3.10;98.30;;;;;;4126696;28;20497;-81
2021/03/16 04:51:01;;;;;;;29.17;12.60;;;3.20;98.30;;;;;;4124486;28;20237;-82
2021/03/16 04:53:03;;;;;;;29.42;11.88;;;3.20;98.30;;;;;;4124440;28;20258;-82
2021/03/16 04:55:06;;;;;;;17.70;11.45;;;3.20;98.30;;;;;;4119016;28;20232;-82
2021/03/16 04:57:09;;;;;;;21.88;10.60;;;3.20;98.30;;;;;;4126081;28;20278;-83
2021/03/16 04:59:11;;;;;;;21.45;10.52;;;3.30;98.30;;;;;;4129033;28;20231;-82
2021/03/16 05:01:13;;;;;;;28.02;11.20;;;3.30;98.30;;;;;;4125607;28;20228;-82
2021/03/16 05:03:16;;;;;;;21.85;12.60;;;3.30;98.30;;;;;;4123974;28;20343;-82
2021/03/16 05:05:20;;;;;;;20.38;9.80;;;3.30;98.30;;;;;;4126700;28;20241;-83
2021/03/16 05:07:22;;;;;;;21.92;10.55;;;3.20;98.30;;;;;;4125040;28;20591;-82
2021/03/16 05:09:24;;;;;;;30.30;13.02;;;3.20;98.30;;;;;;4127232;28;20700;-83
2021/03/16 05:11:26;;;;;;;29.30;11.85;;;3.20;98.30;;;;;;4128366;28;20236;-82
2021/03/16 05:13:29;;;;;;;32.92;11.48;;;3.20;98.30;;;;;;4127319;28;20239;-83
2021/03/16 05:15:30;;;;;;;29.50;13.07;;;3.20;98.30;;;;;;4128928;28;20231;-82
2021/03/16 05:17:32;;;;;;;25.92;12.38;;;3.20;98.30;;;;;;4128403;28;20253;-82
2021/03/16 05:19:35;;;;;;;26.23;13.40;;;3.20;98.30;;;;;;4128277;28;20236;-82
2021/03/16 05:21:37;;;;;;;30.85;14.57;;;3.30;98.30;;;;;;4125336;28;20248;-82
2021/03/16 05:23:39;;;;;;;38.70;14.80;;;3.30;98.30;;;;;;4128764;28;20311;-82
2021/03/16 05:25:40;;;;;;;26.27;14.35;;;3.30;98.30;;;;;;4127790;28;20331;-82
2021/03/16 05:27:42;;;;;;;37.28;14.85;;;3.30;98.30;;;;;;4127320;28;20233;-82
2021/03/16 05:29:45;;;;;;;37.95;16.55;;;3.40;98.30;;;;;;4124149;28;20233;-82
2021/03/16 05:31:47;;;;;;;37.78;16.80;;;3.40;98.30;;;;;;4129156;28;20251;-82
2021/03/16 05:33:49;;;;;;;28.00;15.65;;;3.40;98.30;;;;;;4128762;28;20232;-82
2021/03/16 05:35:52;;;;;;;41.10;17.55;;;3.40;98.30;;;;;;4130279;28;20238;-82
2021/03/16 05:37:55;;;;;;;47.33;18.70;;;3.50;98.30;;;;;;4126836;28;20259;-82
2021/03/16 05:39:56;;;;;;;31.58;17.52;;;3.50;98.30;;;;;;4127473;28;20315;-82
2021/03/16 05:41:59;;;;;;;31.35;17.40;;;3.60;98.30;;;;;;4126326;28;20295;-83
2021/03/16 05:44:01;;;;;;;39.53;15.13;;;3.60;98.30;;;;;;4128895;28;20299;-83
2021/03/16 05:46:04;;;;;;;41.22;16.98;;;3.60;98.30;;;;;;4127645;28;20330;-83
2021/03/16 05:48:10;;;;;;;38.90;17.15;;;3.70;98.30;;;;;;4126645;28;20234;-83
2021/03/16 05:50:15;;;;;;;37.20;16.48;;;3.80;98.30;;;;;;4125037;28;20302;-83
2021/03/16 05:52:17;;;;;;;38.55;16.50;;;3.70;98.30;;;;;;4126559;28;20238;-83
2021/03/16 05:54:19;;;;;;;33.55;15.70;;;3.80;98.30;;;;;;4125917;28;20256;-82
2021/03/16 05:56:22;;;;;;;35.75;13.23;;;3.80;98.30;;;;;;4126862;28;20228;-82
2021/03/16 05:58:24;;;;;;;33.72;13.88;;;3.90;98.30;;;;;;4125378;28;20613;-82
2021/03/16 06:00:26;;;;;;;33.47;13.02;;;3.90;98.30;;;;;;4125394;28;20229;-82
2021/03/16 06:02:29;;;;;;;29.17;12.98;;;3.90;98.30;;;;;;4128276;28;20319;-83
2021/03/16 06:04:33;;;;;;;23.42;9.43;;;4.00;98.30;;;;;;4126333;28;20245;-82
2021/03/16 06:06:38;;;;;;;31.05;11.90;;;4.00;98.30;;;;;;4128617;28;20700;-83
2021/03/16 06:08:41;;;;;;;18.40;9.48;;;4.10;98.30;;;;;;4125635;28;20386;-81
2021/03/16 06:10:44;;;;;;;28.48;12.38;;;4.10;98.30;;;;;;4123435;28;20719;-81
2021/03/16 06:12:47;;;;;;;25.42;10.90;;;4.10;98.30;;;;;;4121441;28;20255;-82
2021/03/16 06:14:49;;;;;;;27.33;9.63;;;4.10;98.30;;;;;;4123959;28;20232;-82
2021/03/16 06:16:51;;;;;;;24.17;8.98;;;4.10;98.30;;;;;;4123459;28;20247;-83
2021/03/16 06:18:54;;;;;;;18.80;8.65;;;4.10;98.30;;;;;;4121033;28;20767;-82
2021/03/16 06:20:59;;;;;;;16.70;9.30;;;4.10;98.30;;;;;;4118423;28;20232;-82
2021/03/16 06:23:03;;;;;;;23.67;9.20;;;4.20;98.30;;;;;;4119894;28;20492;-82
2021/03/16 06:25:09;;;;;;;20.30;8.75;;;4.30;98.30;;;;;;4123619;28;20228;-82
2021/03/16 06:27:21;;;;;;;20.13;8.30;;;4.30;98.30;;;;;;4126144;28;20241;-82
2021/03/16 06:29:23;;;;;;;24.03;10.30;;;4.30;98.30;;;;;;4123937;28;20266;-82
2021/03/16 06:31:25;;;;;;;30.47;8.70;;;4.30;98.30;;;;;;4125147;28;20483;-83
2021/03/16 06:33:30;;;;;;;19.43;8.37;;;4.40;98.30;;;;;;4126878;28;20505;-82
2021/03/16 06:35:32;;;;;;;15.13;8.97;;;4.40;98.30;;;;;;4123944;28;20499;-83
2021/03/16 06:37:36;;;;;;;19.88;9.50;;;4.40;98.30;;;;;;4125941;28;20571;-83
2021/03/16 06:39:44;;;;;;;28.23;10.68;;;4.50;98.30;;;;;;4124583;28;20885;-83
2021/03/16 06:41:46;;;;;;;20.83;9.57;;;4.50;98.30;;;;;;4125735;28;20225;-83
2021/03/16 06:43:56;;;;;;;22.52;9.65;;;4.40;98.30;;;;;;4128738;28;20293;-83
2021/03/16 06:45:58;;;;;;;22.47;9.73;;;4.50;98.30;;;;;;4124210;28;20302;-83
2021/03/16 06:48:12;;;;;;;17.90;10.90;;;4.50;98.30;;;;;;4124848;28;20530;-82
2021/03/16 06:50:14;;;;;;;19.63;10.37;;;4.50;98.30;;;;;;4123850;28;20593;-81
2021/03/16 06:52:17;;;;;;;37.20;15.40;;;4.60;98.30;;;;;;4119570;28;20524;-81
2021/03/16 06:54:20;;;;;;;22.87;11.47;;;4.70;98.30;;;;;;4126146;28;20491;-81
2021/03/16 06:56:29;;;;;;;25.73;10.40;;;4.60;98.30;;;;;;4126861;28;20587;-81
2021/03/16 06:58:33;;;;;;;26.60;11.10;;;4.60;98.30;;;;;;4124426;28;20989;-82
2021/03/16 07:00:35;;;;;;;19.67;10.20;;;4.70;98.30;;;;;;4127286;28;20517;-82
2021/03/16 07:02:37;;;;;;;18.93;10.07;;;4.70;98.30;;;;;;4119285;28;20496;-82
2021/03/16 07:04:44;;;;;;;22.97;11.43;;;4.70;98.30;;;;;;4123994;28;20486;-82
2021/03/16 07:06:47;;;;;;;16.43;10.80;;;4.70;98.30;;;;;;4122651;28;20488;-82
2021/03/16 07:08:51;;;;;;;23.70;10.80;;;4.80;98.30;;;;;;4126446;28;20589;-83
2021/03/16 07:10:53;;;;;;;15.63;9.50;;;4.80;98.30;;;;;;4126511;28;20495;-82
2021/03/16 07:12:55;;;;;;;26.80;10.70;;;4.90;98.30;;;;;;4127660;28;20594;-82
2021/03/16 07:14:59;;;;;;;15.53;8.10;;;4.90;98.30;;;;;;4132631;28;20501;-81
2021/03/16 07:17:02;;;;;;;15.27;8.00;;;4.90;98.30;;;;;;4125821;28;20522;-81
2021/03/16 07:19:06;;;;;;;17.30;8.10;;;4.90;98.30;;;;;;4128903;28;20494;-82
2021/03/16 07:21:11;;;;;;;16.20;7.83;;;5.00;98.30;;;;;;4132057;28;20501;-82
2021/03/16 07:23:16;;;;;;;14.33;8.03;;;4.90;98.30;;;;;;4125818;28;20590;-83
2021/03/16 07:25:19;;;;;;;16.63;7.97;;;5.00;98.30;;;;;;4127187;28;20489;-83
2021/03/16 07:27:22;;;;;;;15.00;8.70;;;5.00;98.30;;;;;;4128057;28;21315;-80
2021/03/16 07:29:24;;;;;;;15.00;8.23;;;5.10;98.30;;;;;;4128388;28;20237;-80
2021/03/16 07:31:36;;;;;;;14.67;8.17;;;5.10;98.30;;;;;;4125114;28;20482;-80
2021/03/16 07:33:39;;;;;;;16.13;8.80;;;5.10;98.30;;;;;;4128200;28;20565;-81
2021/03/16 07:35:42;;;;;;;21.03;8.77;;;5.10;98.30;;;;;;4125488;28;20497;-81
2021/03/16 07:37:45;;;;;;;14.00;7.47;;;5.20;98.30;;;;;;4124202;28;20497;-80
2021/03/16 07:39:48;;;;;;;12.00;6.93;;;5.20;98.30;;;;;;4131355;28;21216;-81
2021/03/16 07:41:52;;;;;;;12.60;7.17;;;5.20;98.30;;;;;;4128316;28;20522;-80
2021/03/16 07:44:02;;;;;;;15.27;6.87;;;5.30;98.30;;;;;;4130979;28;20460;-81
2021/03/16 07:46:12;;;;;;;10.90;6.27;;;5.30;98.30;;;;;;4131803;28;20569;-81
2021/03/16 07:48:18;;;;;;;14.10;7.37;;;5.40;98.30;;;;;;4121405;28;20499;-81
2021/03/16 07:50:27;;;;;;;10.50;7.10;;;5.40;98.30;;;;;;4134105;28;20860;-81
2021/03/16 07:52:29;;;;;;;12.27;6.50;;;5.40;98.30;;;;;;4127123;28;20498;-82
2021/03/16 07:54:36;;;;;;;16.27;7.17;;;5.40;98.30;;;;;;4129985;28;20498;-82
2021/03/16 07:56:40;;;;;;;16.37;6.13;;;5.40;98.30;;;;;;4122987;28;20582;-81
2021/03/16 07:58:47;;;;;;;14.57;7.53;;;5.50;98.30;;;;;;4130025;28;21085;-83
2021/03/16 08:00:49;;;;;;;18.60;7.90;;;5.50;98.30;;;;;;4126230;28;20493;-81
2021/03/16 08:02:57;;;;;;;16.77;7.43;;;5.50;98.30;;;;;;4127746;28;20494;-81
2021/03/16 08:05:00;;;;;;;22.33;6.90;;;5.50;98.30;;;;;;4126993;28;20494;-82
2021/03/16 08:07:04;;;;;;;29.23;11.40;;;5.50;98.30;;;;;;4127242;28;20488;-82
2021/03/16 08:09:18;;;;;;;29.33;14.87;;;5.50;98.30;;;;;;4130751;28;20520;-81
2021/03/16 08:11:20;;;;;;;36.03;18.70;;;5.50;98.30;;;;;;4126420;28;20490;-81
2021/03/16 08:13:23;;;;;;;16.73;6.83;;;5.60;98.30;;;;;;4125133;28;20557;-82
2021/03/16 08:15:26;;;;;;;15.40;5.47;;;5.60;98.30;;;;;;4126304;28;20526;-81
2021/03/16 08:17:31;;;;;;;10.60;5.10;;;5.60;98.30;;;;;;4121911;28;20577;-81
2021/03/16 08:19:38;;;;;;;11.13;5.83;;;5.60;98.30;;;;;;4120938;28;20493;-81
2021/03/16 08:21:41;;;;;;;11.93;5.53;;;5.60;98.30;;;;;;4127568;28;20494;-81
2021/03/16 08:23:43;;;;;;;19.70;5.93;;;5.60;98.30;;;;;;4123300;28;20492;-81
2021/03/16 08:25:48;;;;;;;10.17;4.93;;;5.70;98.30;;;;;;4124155;28;20498;-82
2021/03/16 08:27:50;;;;;;;10.23;5.70;;;5.70;98.30;;;;;;4125168;28;20557;-82
2021/03/16 08:29:52;;;;;;;9.93;4.93;;;5.70;98.30;;;;;;4124865;28;20496;-82
2021/03/16 08:31:56;;;;;;;15.53;6.70;;;5.70;98.30;;;;;;4124338;28;20506;-82
2021/03/16 08:33:59;;;;;;;14.00;5.93;;;5.80;98.30;;;;;;4129219;28;20572;-82
2021/03/16 08:36:03;;;;;;;12.83;5.73;;;5.80;98.30;;;;;;4126423;28;20464;-81
2021/03/16 08:38:07;;;;;;;15.67;5.23;;;5.80;98.30;;;;;;4128255;28;20599;-81
2021/03/16 08:40:10;;;;;;;12.07;7.10;;;5.80;98.30;;;;;;4126107;28;20621;-82
2021/03/16 08:42:16;;;;;;;20.40;6.50;;;5.90;98.30;;;;;;4121572;28;21803;-81
2021/03/16 08:44:18;;;;;;;11.57;5.60;;;5.90;98.30;;;;;;4124438;28;20545;-82
2021/03/16 08:46:34;;;;;;;17.27;5.90;;;6.00;98.30;;;;;;4123463;28;20615;-80
2021/03/16 08:48:37;;;;;;;15.37;6.37;;;6.00;98.30;;;;;;4122863;28;20477;-80
2021/03/16 08:50:40;;;;;;;21.10;10.00;;;6.00;98.30;;;;;;4121788;28;21954;-80
2021/03/16 08:52:42;;;;;;;25.87;11.73;;;6.00;98.30;;;;;;4124941;28;20526;-80
2021/03/16 08:54:44;;;;;;;20.60;7.73;;;6.00;98.30;;;;;;4125202;28;20577;-81
2021/03/16 08:56:48;;;;;;;14.43;5.67;;;6.00;98.30;;;;;;4123840;28;20637;-80
2021/03/16 08:58:53;;;;;;;13.07;5.73;;;6.00;98.30;;;;;;4119449;28;20498;-80
2021/03/16 09:00:55;;;;;;;14.50;5.60;;;6.00;98.30;;;;;;4123480;28;20554;-81
2021/03/16 09:02:58;;;;;;;26.20;13.40;;;6.10;98.30;;;;;;4125117;28;20541;-80
2021/03/16 09:05:01;;;;;;;47.33;21.77;;;6.20;98.30;;;;;;4125018;28;20980;-80
2021/03/16 09:07:05;;;;;;;38.33;18.10;;;6.30;98.30;;;;;;4126042;28;20488;-80
2021/03/16 09:09:08;;;;;;;19.90;7.40;;;6.30;98.30;;;;;;4126904;28;20485;-80
2021/03/16 09:11:10;;;;;;;13.90;6.40;;;6.40;98.30;;;;;;4120385;28;20582;-80
2021/03/16 09:13:12;;;;;;;15.07;6.13;;;6.50;98.30;;;;;;4122553;28;20552;-80
2021/03/16 09:15:16;;;;;;;11.93;5.40;;;6.60;98.30;;;;;;4124713;28;20499;-80
2021/03/16 09:17:18;;;;;;;12.80;4.80;;;6.70;98.30;;;;;;4125124;28;20568;-81
2021/03/16 09:19:23;;;;;;;8.10;4.53;;;6.80;98.30;;;;;;4122465;28;20487;-82
2021/03/16 09:21:26;;;;;;;16.20;5.57;;;6.80;98.30;;;;;;4125078;28;20489;-82
2021/03/16 09:23:28;;;;;;;18.47;5.20;;;6.80;98.30;;;;;;4121264;28;20890;-81
2021/03/16 09:25:46;;;;;;;19.87;5.47;;;6.80;98.30;;;;;;4122821;28;21041;-82
2021/03/16 09:27:49;;;;;;;12.07;4.37;;;6.90;98.30;;;;;;4123740;28;20593;-82
2021/03/16 09:29:51;;;;;;;8.53;4.80;;;6.80;98.30;;;;;;4125179;28;20583;-81
2021/03/16 09:31:55;;;;;;;11.40;4.50;;;6.90;98.30;;;;;;4124110;28;20461;-83
2021/03/16 09:33:58;;;;;;;17.33;4.77;;;6.90;98.30;;;;;;4122787;28;20529;-81
2021/03/16 09:36:01;;;;;;;15.83;4.80;;;6.90;98.30;;;;;;4119568;28;20554;-82
2021/03/16 09:38:06;;;;;;;14.57;4.10;;;6.90;98.30;;;;;;4123247;28;21082;-82
2021/03/16 09:40:32;;;;;;;18.43;7.70;;;6.90;98.30;;;;;;4123931;28;20483;-82
2021/03/16 09:42:36;;;;;;;130.97;54.03;;;7.00;98.30;;;;;;4120949;28;20882;-82
2021/03/16 09:44:45;;;;;;;43.03;20.83;;;7.00;98.30;;;;;;4119590;28;20911;-81
2021/03/16 09:46:52;;;;;;;15.00;5.60;;;7.00;98.30;;;;;;4120002;28;20509;-81
2021/03/16 09:48:57;;;;;;;18.73;5.13;;;7.00;98.30;;;;;;4120963;28;20520;-78
2021/03/16 09:51:10;;;;;;;8.10;4.97;;;7.10;98.30;;;;;;4116522;28;20462;-79
2021/03/16 09:53:31;;;;;;;11.73;5.03;;;7.10;98.30;;;;;;4117847;28;21575;-82
2021/03/16 09:55:34;;;;;;;11.87;4.43;;;7.20;98.30;;;;;;4120205;28;20463;-81
2021/03/16 09:57:38;;;;;;;13.90;4.47;;;7.30;98.30;;;;;;4122148;28;20485;-81
2021/03/16 09:59:41;;;;;;;13.83;4.33;;;7.30;98.30;;;;;;4116519;28;20462;-81
2021/03/16 10:01:44;;;;;;;25.43;4.97;;;7.30;98.30;;;;;;4121223;28;20506;-80
2021/03/16 10:03:57;;;;;;;13.53;4.50;;;7.30;98.30;;;;;;4119993;28;20526;-81
2021/03/16 10:06:04;;;;;;;14.83;3.97;;;7.30;98.30;;;;;;4119517;28;20467;-81
2021/03/16 10:08:06;;;;;;;14.20;4.27;;;7.30;98.30;;;;;;4123027;28;20461;-80
2021/03/16 10:10:12;;;;;;;15.07;3.97;;;7.30;98.30;;;;;;4120812;28;20541;-81
2021/03/16 10:12:19;;;;;;;11.43;3.73;;;7.30;98.30;;;;;;4115981;28;20520;-80
2021/03/16 10:14:25;;;;;;;11.23;3.63;;;7.40;98.30;;;;;;4122122;28;20907;-82
2021/03/16 10:16:31;;;;;;;11.23;3.70;;;7.30;98.30;;;;;;4119664;28;20505;-81
2021/03/16 10:18:38;;;;;;;9.07;3.93;;;7.30;98.30;;;;;;4120818;28;20527;-81
2021/03/16 10:20:42;;;;;;;7.50;3.37;;;7.20;98.30;;;;;;4118345;28;20556;-81
2021/03/16 10:22:52;;;;;;;7.80;4.20;;;7.50;98.30;;;;;;4121378;28;21224;-80
2021/03/16 10:24:56;;;;;;;16.40;4.23;;;7.90;98.30;;;;;;4120130;28;20920;-81
2021/03/16 10:27:00;;;;;;;9.53;3.50;;;8.00;98.30;;;;;;4121414;28;20475;-81
2021/03/16 10:29:09;;;;;;;11.67;3.90;;;8.10;98.30;;;;;;4122918;28;20559;-79
2021/03/16 10:31:13;;;;;;;8.27;3.97;;;8.10;98.30;;;;;;4121573;28;20549;-79
2021/03/16 10:33:15;;;;;;;9.30;3.40;;;8.00;98.30;;;;;;4119403;28;20500;-79
2021/03/16 10:35:18;;;;;;;11.40;4.30;;;8.00;98.30;;;;;;4115751;28;20512;-78
2021/03/16 10:37:22;;;;;;;12.93;4.23;;;8.00;98.30;;;;;;4120265;28;20490;-78
2021/03/16 10:39:24;;;;;;;12.70;4.17;;;7.90;98.30;;;;;;4119280;28;21010;-78
2021/03/16 10:41:26;;;;;;;10.80;5.10;;;7.80;98.30;;;;;;4116494;28;20478;-79
2021/03/16 10:43:29;;;;;;;6.47;3.60;;;7.90;98.30;;;;;;4126330;28;20533;-79
2021/03/16 10:45:31;;;;;;;15.47;3.87;;;7.80;98.30;;;;;;4121492;28;20472;-78
2021/03/16 10:47:33;;;;;;;13.97;4.43;;;7.90;98.30;;;;;;4121791;28;20534;-78
2021/03/16 10:49:36;;;;;;;7.80;3.43;;;7.80;98.30;;;;;;4124608;28;20491;-78